createdAt,value
2017-08-12T00:00:54.547Z,0
2017-08-12T00:01:54.517Z,0
2017-08-12T00:02:54.534Z,0
2017-08-12T00:03:54.529Z,0
2017-08-12T00:04:54.494Z,0
2017-08-12T00:05:54.171Z,0
2017-08-12T00:06:54.477Z,0
2017-08-12T00:07:54.137Z,0
2017-08-12T00:08:54.438Z,0
2017-08-12T00:09:54.400Z,0
2017-08-12T00:10:54.088Z,0
2017-08-12T00:11:54.382Z,0
2017-08-12T00:12:54.353Z,0
2017-08-12T00:13:54.346Z,0
2017-08-12T00:14:54.340Z,0
2017-08-12T00:15:54.328Z,0
2017-08-12T00:16:54.307Z,0
2017-08-12T00:17:54.285Z,0
2017-08-12T00:18:54.290Z,0
2017-08-12T00:19:54.270Z,0
2017-08-12T00:20:54.236Z,0
2017-08-12T00:21:54.218Z,0
2017-08-12T00:22:54.226Z,0
2017-08-12T00:23:54.213Z,0
2017-08-12T00:24:54.190Z,0
2017-08-12T00:25:54.187Z,0
2017-08-12T00:26:53.553Z,0
2017-08-12T00:27:54.148Z,0
2017-08-12T00:28:54.136Z,0
2017-08-12T00:29:53.804Z,0
2017-08-12T00:30:53.825Z,0
2017-08-12T00:31:53.478Z,0
2017-08-12T00:32:54.085Z,0
2017-08-12T00:33:53.750Z,0
2017-08-12T00:34:54.043Z,0
2017-08-12T00:35:53.728Z,0
2017-08-12T00:36:54.023Z,0
2017-08-12T00:37:53.700Z,0
2017-08-12T00:38:53.986Z,0
2017-08-12T00:39:53.660Z,0
2017-08-12T00:40:53.945Z,0
2017-08-12T00:41:53.633Z,0
2017-08-12T00:42:53.613Z,0
2017-08-12T00:43:53.598Z,0
2017-08-12T00:44:53.899Z,0
2017-08-12T00:45:53.562Z,0
2017-08-12T00:46:53.896Z,0
2017-08-12T00:47:53.528Z,0
2017-08-12T00:48:53.543Z,0
2017-08-12T00:49:53.513Z,0
2017-08-12T00:50:53.802Z,0
2017-08-12T00:51:53.792Z,0
2017-08-12T00:52:53.772Z,0
2017-08-12T00:53:53.766Z,0
2017-08-12T00:54:53.770Z,0
2017-08-12T00:55:53.729Z,0
2017-08-12T00:56:53.715Z,0
2017-08-12T00:57:53.714Z,0
2017-08-12T00:58:53.704Z,0
2017-08-12T00:59:53.682Z,0
2017-08-12T01:00:53.649Z,0
2017-08-12T01:01:53.643Z,0
2017-08-12T01:02:53.643Z,0
2017-08-12T01:03:53.614Z,0
2017-08-12T01:04:52.987Z,0
2017-08-12T01:05:53.593Z,0
2017-08-12T01:06:53.565Z,0
2017-08-12T01:07:52.973Z,0
2017-08-12T01:08:52.925Z,0
2017-08-12T01:09:53.218Z,0
2017-08-12T01:10:53.235Z,0
2017-08-12T01:11:53.203Z,0
2017-08-12T01:12:52.862Z,0
2017-08-12T01:13:53.457Z,0
2017-08-12T01:14:53.442Z,0
2017-08-12T01:15:53.132Z,0
2017-08-12T01:16:53.116Z,0
2017-08-12T01:17:53.429Z,0
2017-08-12T01:18:53.396Z,0
2017-08-12T01:19:53.078Z,0
2017-08-12T01:20:53.053Z,0
2017-08-12T01:21:53.348Z,0
2017-08-12T01:22:53.026Z,0
2017-08-12T01:23:53.010Z,0
2017-08-12T01:24:53.014Z,0
2017-08-12T01:25:52.990Z,0
2017-08-12T01:26:52.984Z,0
2017-08-12T01:27:52.977Z,0
2017-08-12T01:28:52.945Z,0
2017-08-12T01:29:52.922Z,0
2017-08-12T01:30:52.920Z,0
2017-08-12T01:31:52.619Z,0
2017-08-12T01:32:52.889Z,0
2017-08-12T01:33:53.198Z,0
2017-08-12T01:34:52.874Z,0
2017-08-12T01:35:52.842Z,0
2017-08-12T01:36:53.133Z,0
2017-08-12T01:37:52.829Z,0
2017-08-12T01:38:53.107Z,0
2017-08-12T01:39:53.108Z,0
2017-08-12T01:40:53.076Z,0
2017-08-12T01:41:53.075Z,0
2017-08-12T01:42:53.054Z,0
2017-08-12T01:43:52.742Z,0
2017-08-12T01:44:53.017Z,0
2017-08-12T01:45:53.010Z,0
2017-08-12T01:46:52.989Z,0
2017-08-12T01:47:52.964Z,0
2017-08-12T01:48:52.957Z,0
2017-08-12T01:49:52.956Z,0
2017-08-12T01:50:52.663Z,0
2017-08-12T01:51:52.922Z,0
2017-08-12T01:52:52.896Z,0
2017-08-12T01:53:52.583Z,0
2017-08-12T01:54:52.868Z,0
2017-08-12T01:55:52.549Z,0
2017-08-12T01:56:52.541Z,0
2017-08-12T01:57:52.821Z,0
2017-08-12T01:58:52.521Z,0
2017-08-12T01:59:52.820Z,0
2017-08-12T02:00:52.792Z,0
2017-08-12T02:01:52.766Z,0
2017-08-12T02:02:52.761Z,0
2017-08-12T02:03:52.746Z,0
2017-08-12T02:04:52.737Z,0
2017-08-12T02:05:52.422Z,0
2017-08-12T02:06:52.689Z,0
2017-08-12T02:07:52.690Z,0
2017-08-12T02:08:52.680Z,0
2017-08-12T02:09:52.662Z,0
2017-08-12T02:10:52.651Z,0
2017-08-12T02:11:52.028Z,0
2017-08-12T02:12:52.621Z,0
2017-08-12T02:13:52.601Z,0
2017-08-12T02:14:52.593Z,0
2017-08-12T02:15:52.291Z,0
2017-08-12T02:16:52.258Z,0
2017-08-12T02:17:52.219Z,0
2017-08-12T02:18:52.207Z,0
2017-08-12T02:19:52.501Z,0
2017-08-12T02:20:52.495Z,0
2017-08-12T02:21:52.467Z,0
2017-08-12T02:22:52.467Z,0
2017-08-12T02:23:52.438Z,0
2017-08-12T02:24:52.440Z,0
2017-08-12T02:25:52.111Z,0
2017-08-12T02:26:52.423Z,0
2017-08-12T02:27:52.393Z,0
2017-08-12T02:28:52.381Z,0
2017-08-12T02:29:52.365Z,0
2017-08-12T02:30:52.360Z,0
2017-08-12T02:31:52.325Z,0
2017-08-12T02:32:52.321Z,0
2017-08-12T02:33:52.298Z,0
2017-08-12T02:34:52.301Z,0
2017-08-12T02:35:51.958Z,0
2017-08-12T02:36:52.275Z,0
2017-08-12T02:37:52.243Z,0
2017-08-12T02:38:52.239Z,0
2017-08-12T02:39:52.225Z,0
2017-08-12T02:40:52.221Z,0
2017-08-12T02:41:52.180Z,0
2017-08-12T02:42:52.180Z,0
2017-08-12T02:43:52.158Z,0
2017-08-12T02:44:51.842Z,0
2017-08-12T02:45:52.128Z,0
2017-08-12T02:46:52.112Z,0
2017-08-12T02:47:52.117Z,0
2017-08-12T02:48:51.800Z,0
2017-08-12T02:49:52.080Z,0
2017-08-12T02:50:52.061Z,0
2017-08-12T02:51:52.037Z,0
2017-08-12T02:52:51.720Z,0
2017-08-12T02:53:51.702Z,0
2017-08-12T02:54:51.698Z,0
2017-08-12T02:55:51.686Z,0
2017-08-12T02:56:51.980Z,0
2017-08-12T02:57:51.962Z,0
2017-08-12T02:58:51.933Z,0
2017-08-12T02:59:51.924Z,0
2017-08-12T03:00:51.910Z,0
2017-08-12T03:01:51.592Z,0
2017-08-12T03:02:51.866Z,0
2017-08-12T03:03:51.856Z,0
2017-08-12T03:04:51.850Z,0
2017-08-12T03:05:51.841Z,0
2017-08-12T03:06:51.821Z,0
2017-08-12T03:07:51.797Z,0
2017-08-12T03:08:51.778Z,0
2017-08-12T03:09:51.478Z,0
2017-08-12T03:10:51.785Z,0
2017-08-12T03:11:51.745Z,0
2017-08-12T03:12:51.435Z,0
2017-08-12T03:13:51.721Z,0
2017-08-12T03:14:51.399Z,0
2017-08-12T03:15:51.684Z,0
2017-08-12T03:16:51.677Z,0
2017-08-12T03:17:51.649Z,0
2017-08-12T03:18:51.677Z,0
2017-08-12T03:19:51.621Z,0
2017-08-12T03:20:51.610Z,0
2017-08-12T03:21:51.602Z,0
2017-08-12T03:22:51.575Z,0
2017-08-12T03:23:51.561Z,0
2017-08-12T03:24:51.559Z,0
2017-08-12T03:25:51.543Z,0
2017-08-12T03:26:51.529Z,0
2017-08-12T03:27:51.508Z,0
2017-08-12T03:28:51.490Z,0
2017-08-12T03:29:51.482Z,0
2017-08-12T03:30:51.496Z,0
2017-08-12T03:31:50.538Z,0
2017-08-12T03:32:51.433Z,0
2017-08-12T03:33:50.825Z,0
2017-08-12T03:34:51.104Z,0
2017-08-12T03:35:51.395Z,0
2017-08-12T03:36:51.087Z,0
2017-08-12T03:37:51.371Z,0
2017-08-12T03:38:51.362Z,0
2017-08-12T03:39:51.331Z,0
2017-08-12T03:40:51.319Z,0
2017-08-12T03:41:51.312Z,0
2017-08-12T03:42:50.671Z,0
2017-08-12T03:43:51.265Z,0
2017-08-12T03:44:51.275Z,0
2017-08-12T03:45:51.257Z,0
2017-08-12T03:46:50.932Z,0
2017-08-12T03:47:50.621Z,0
2017-08-12T03:48:51.209Z,0
2017-08-12T03:49:51.194Z,0
2017-08-12T03:50:50.562Z,0
2017-08-12T03:51:50.872Z,0
2017-08-12T03:52:50.845Z,0
2017-08-12T03:53:51.128Z,0
2017-08-12T03:54:50.821Z,0
2017-08-12T03:55:50.502Z,0
2017-08-12T03:56:50.800Z,0
2017-08-12T03:57:51.071Z,0
2017-08-12T03:58:50.768Z,0
2017-08-12T03:59:50.755Z,0
2017-08-12T04:00:50.734Z,0
2017-08-12T04:01:51.016Z,0
2017-08-12T04:02:50.710Z,0
2017-08-12T04:03:50.681Z,0
2017-08-12T04:04:50.669Z,0
2017-08-12T04:05:50.979Z,0
2017-08-12T04:06:50.648Z,0
2017-08-12T04:07:50.648Z,0
2017-08-12T04:08:50.626Z,0
2017-08-12T04:09:50.609Z,0
2017-08-12T04:10:50.607Z,0
2017-08-12T04:11:50.574Z,0
2017-08-12T04:12:50.879Z,0
2017-08-12T04:13:50.847Z,0
2017-08-12T04:14:50.530Z,0
2017-08-12T04:15:50.834Z,0
2017-08-12T04:16:50.821Z,0
2017-08-12T04:17:50.504Z,0
2017-08-12T04:18:50.778Z,0
2017-08-12T04:19:50.786Z,0
2017-08-12T04:20:50.749Z,0
2017-08-12T04:21:50.457Z,5
2017-08-12T04:22:50.721Z,5
2017-08-12T04:23:50.721Z,5
2017-08-12T04:24:50.688Z,5
2017-08-12T04:25:50.369Z,5
2017-08-12T04:26:50.372Z,5
2017-08-12T04:27:50.647Z,5
2017-08-12T04:28:50.643Z,5
2017-08-12T04:29:50.627Z,10
2017-08-12T04:30:50.311Z,10
2017-08-12T04:31:49.980Z,10
2017-08-12T04:32:50.578Z,10
2017-08-12T04:33:50.566Z,10
2017-08-12T04:34:50.563Z,15
2017-08-12T04:35:50.260Z,15
2017-08-12T04:36:49.913Z,15
2017-08-12T04:37:50.216Z,15
2017-08-12T04:38:50.507Z,15
2017-08-12T04:39:50.481Z,15
2017-08-12T04:40:50.462Z,15
2017-08-12T04:41:50.475Z,15
2017-08-12T04:42:49.834Z,15
2017-08-12T04:43:50.419Z,20
2017-08-12T04:44:50.117Z,20
2017-08-12T04:45:50.103Z,20
2017-08-12T04:46:50.387Z,20
2017-08-12T04:47:50.365Z,20
2017-08-12T04:48:50.371Z,25
2017-08-12T04:49:50.348Z,25
2017-08-12T04:50:50.324Z,25
2017-08-12T04:51:50.319Z,30
2017-08-12T04:52:50.308Z,30
2017-08-12T04:53:49.989Z,30
2017-08-12T04:54:50.269Z,30
2017-08-12T04:55:49.951Z,30
2017-08-12T04:56:50.234Z,25
2017-08-12T04:57:50.219Z,25
2017-08-12T04:58:50.219Z,25
2017-08-12T04:59:50.202Z,25
2017-08-12T05:00:50.197Z,30
2017-08-12T05:01:50.179Z,30
2017-08-12T05:02:50.153Z,30
2017-08-12T05:03:50.153Z,30
2017-08-12T05:04:50.113Z,30
2017-08-12T05:05:50.121Z,30
2017-08-12T05:06:50.091Z,35
2017-08-12T05:07:50.087Z,35
2017-08-12T05:08:50.063Z,35
2017-08-12T05:09:49.749Z,35
2017-08-12T05:10:49.736Z,35
2017-08-12T05:11:49.734Z,35
2017-08-12T05:12:49.693Z,35
2017-08-12T05:13:49.985Z,35
2017-08-12T05:14:49.998Z,35
2017-08-12T05:15:49.961Z,40
2017-08-12T05:16:49.952Z,40
2017-08-12T05:17:49.637Z,40
2017-08-12T05:18:49.920Z,40
2017-08-12T05:19:49.890Z,40
2017-08-12T05:20:49.885Z,40
2017-08-12T05:21:49.875Z,40
2017-08-12T05:22:49.855Z,35
2017-08-12T05:23:49.835Z,35
2017-08-12T05:24:49.827Z,35
2017-08-12T05:25:49.817Z,35
2017-08-12T05:26:49.809Z,35
2017-08-12T05:27:49.490Z,35
2017-08-12T05:28:49.772Z,35
2017-08-12T05:29:49.759Z,35
2017-08-12T05:30:49.449Z,35
2017-08-12T05:31:49.736Z,35
2017-08-12T05:32:49.722Z,35
2017-08-12T05:33:49.696Z,40
2017-08-12T05:34:49.391Z,40
2017-08-12T05:35:49.671Z,40
2017-08-12T05:36:49.665Z,45
2017-08-12T05:37:49.636Z,45
2017-08-12T05:38:49.619Z,50
2017-08-12T05:39:49.590Z,50
2017-08-12T05:40:49.591Z,50
2017-08-12T05:41:49.570Z,50
2017-08-12T05:42:49.579Z,50
2017-08-12T05:43:49.244Z,55
2017-08-12T05:44:49.522Z,55
2017-08-12T05:45:49.517Z,50
2017-08-12T05:46:49.495Z,50
2017-08-12T05:47:49.477Z,55
2017-08-12T05:48:49.468Z,55
2017-08-12T05:49:49.460Z,55
2017-08-12T05:50:49.439Z,60
2017-08-12T05:51:49.419Z,65
2017-08-12T05:52:49.405Z,70
2017-08-12T05:53:49.395Z,75
2017-08-12T05:54:49.390Z,75
2017-08-12T05:55:49.361Z,75
2017-08-12T05:56:49.353Z,75
2017-08-12T05:57:49.339Z,75
2017-08-12T05:58:49.326Z,80
2017-08-12T05:59:49.317Z,80
2017-08-12T06:00:49.292Z,80
2017-08-12T06:01:48.978Z,80
2017-08-12T06:02:48.663Z,85
2017-08-12T06:03:49.276Z,95
2017-08-12T06:04:49.241Z,100
2017-08-12T06:05:49.217Z,100
2017-08-12T06:06:49.219Z,100
2017-08-12T06:07:48.881Z,95
2017-08-12T06:08:49.187Z,90
2017-08-12T06:09:48.869Z,90
2017-08-12T06:10:49.142Z,90
2017-08-12T06:11:49.141Z,95
2017-08-12T06:12:48.811Z,95
2017-08-12T06:13:49.110Z,100
2017-08-12T06:14:48.781Z,105
2017-08-12T06:15:49.069Z,115
2017-08-12T06:16:49.065Z,125
2017-08-12T06:17:49.055Z,130
2017-08-12T06:18:49.039Z,140
2017-08-12T06:19:49.032Z,140
2017-08-12T06:20:48.696Z,135
2017-08-12T06:21:48.979Z,125
2017-08-12T06:22:48.973Z,125
2017-08-12T06:23:48.954Z,125
2017-08-12T06:24:48.327Z,125
2017-08-12T06:25:48.328Z,130
2017-08-12T06:26:48.300Z,135
2017-08-12T06:27:48.285Z,140
2017-08-12T06:28:48.875Z,140
2017-08-12T06:29:48.859Z,140
2017-08-12T06:30:48.849Z,145
2017-08-12T06:31:48.837Z,145
2017-08-12T06:32:48.517Z,140
2017-08-12T06:33:48.787Z,140
2017-08-12T06:34:48.782Z,140
2017-08-12T06:35:48.462Z,150
2017-08-12T06:36:48.446Z,165
2017-08-12T06:37:48.744Z,170
2017-08-12T06:38:48.706Z,170
2017-08-12T06:39:48.094Z,165
2017-08-12T06:40:48.080Z,160
2017-08-12T06:41:48.676Z,160
2017-08-12T06:42:48.675Z,170
2017-08-12T06:43:48.341Z,180
2017-08-12T06:44:48.025Z,190
2017-08-12T06:45:48.620Z,200
2017-08-12T06:46:48.614Z,210
2017-08-12T06:47:48.278Z,225
2017-08-12T06:48:48.560Z,230
2017-08-12T06:49:48.540Z,225
2017-08-12T06:50:48.534Z,220
2017-08-12T06:51:48.532Z,225
2017-08-12T06:52:48.514Z,240
2017-08-12T06:53:48.189Z,255
2017-08-12T06:54:48.472Z,245
2017-08-12T06:55:48.447Z,225
2017-08-12T06:56:48.140Z,215
2017-08-12T06:57:48.423Z,220
2017-08-12T06:58:48.412Z,225
2017-08-12T06:59:48.405Z,235
2017-08-12T07:00:48.387Z,245
2017-08-12T07:01:48.365Z,250
2017-08-12T07:02:48.353Z,260
2017-08-12T07:03:48.322Z,275
2017-08-12T07:04:48.318Z,265
2017-08-12T07:05:48.301Z,265
2017-08-12T07:06:48.296Z,265
2017-08-12T07:07:48.266Z,265
2017-08-12T07:08:48.244Z,280
2017-08-12T07:09:47.961Z,280
2017-08-12T07:10:48.211Z,270
2017-08-12T07:11:47.906Z,275
2017-08-12T07:12:48.215Z,285
2017-08-12T07:13:48.171Z,285
2017-08-12T07:14:47.857Z,275
2017-08-12T07:15:48.133Z,285
2017-08-12T07:16:47.828Z,300
2017-08-12T07:17:48.114Z,320
2017-08-12T07:18:48.291Z,360
2017-08-12T07:19:47.964Z,400
2017-08-12T07:20:47.787Z,430
2017-08-12T07:21:47.755Z,440
2017-08-12T07:22:47.943Z,435
2017-08-12T07:23:47.700Z,395
2017-08-12T07:24:47.999Z,380
2017-08-12T07:25:47.993Z,375
2017-08-12T07:26:47.968Z,390
2017-08-12T07:27:48.159Z,400
2017-08-12T07:28:47.946Z,400
2017-08-12T07:29:47.623Z,410
2017-08-12T07:30:47.609Z,415
2017-08-12T07:31:47.284Z,400
2017-08-12T07:32:47.576Z,410
2017-08-12T07:33:47.870Z,430
2017-08-12T07:34:47.240Z,440
2017-08-12T07:35:47.515Z,425
2017-08-12T07:36:47.525Z,410
2017-08-12T07:37:47.789Z,395
2017-08-12T07:38:47.170Z,400
2017-08-12T07:39:47.463Z,405
2017-08-12T07:40:47.447Z,405
2017-08-12T07:41:47.431Z,400
2017-08-12T07:42:47.423Z,390
2017-08-12T07:43:47.091Z,390
2017-08-12T07:44:47.401Z,385
2017-08-12T07:45:47.066Z,385
2017-08-12T07:46:47.660Z,400
2017-08-12T07:47:47.643Z,395
2017-08-12T07:48:47.324Z,380
2017-08-12T07:49:47.622Z,380
2017-08-12T07:50:47.591Z,365
2017-08-12T07:51:47.276Z,340
2017-08-12T07:52:47.560Z,335
2017-08-12T07:53:47.760Z,340
2017-08-12T07:54:47.550Z,350
2017-08-12T07:55:47.529Z,390
2017-08-12T07:56:47.521Z,420
2017-08-12T07:57:47.698Z,425
2017-08-12T07:58:47.470Z,415
2017-08-12T07:59:47.150Z,425
2017-08-12T08:00:47.452Z,435
2017-08-12T08:01:47.435Z,460
2017-08-12T08:02:47.436Z,470
2017-08-12T08:03:47.414Z,470
2017-08-12T08:04:47.392Z,445
2017-08-12T08:05:46.460Z,400
2017-08-12T08:06:47.061Z,370
2017-08-12T08:07:47.338Z,385
2017-08-12T08:08:47.036Z,385
2017-08-12T08:09:47.310Z,405
2017-08-12T08:10:46.988Z,400
2017-08-12T08:11:46.970Z,405
2017-08-12T08:12:47.255Z,385
2017-08-12T08:13:47.250Z,375
2017-08-12T08:14:47.225Z,380
2017-08-12T08:15:46.908Z,415
2017-08-12T08:16:47.204Z,455
2017-08-12T08:17:46.887Z,475
2017-08-12T08:18:46.870Z,490
2017-08-12T08:19:46.556Z,500
2017-08-12T08:20:47.137Z,510
2017-08-12T08:21:46.526Z,540
2017-08-12T08:22:47.027Z,565
2017-08-12T08:23:47.108Z,640
2017-08-12T08:24:47.099Z,670
2017-08-12T08:25:47.056Z,665
2017-08-12T08:26:47.056Z,760
2017-08-12T08:27:47.263Z,850
2017-08-12T08:28:47.017Z,825
2017-08-12T08:29:46.709Z,730
2017-08-12T08:30:46.999Z,880
2017-08-12T08:31:46.680Z,995
2017-08-12T08:32:46.640Z,825
2017-08-12T08:33:46.634Z,850
2017-08-12T08:34:46.925Z,1025
2017-08-12T08:35:46.925Z,860
2017-08-12T08:36:46.897Z,990
2017-08-12T08:37:46.590Z,1155
2017-08-12T08:38:46.559Z,1005
2017-08-12T08:39:46.560Z,1035
2017-08-12T08:40:45.912Z,950
2017-08-12T08:41:46.515Z,1135
2017-08-12T08:42:46.501Z,1165
2017-08-12T08:43:46.784Z,1115
2017-08-12T08:44:46.482Z,1095
2017-08-12T08:45:46.456Z,1040
2017-08-12T08:46:46.731Z,805
2017-08-12T08:47:46.737Z,775
2017-08-12T08:48:46.406Z,1020
2017-08-12T08:49:46.700Z,1085
2017-08-12T08:50:46.380Z,1140
2017-08-12T08:51:46.363Z,1405
2017-08-12T08:52:46.653Z,1275
2017-08-12T08:53:46.638Z,1260
2017-08-12T08:54:46.612Z,1510
2017-08-12T08:55:46.603Z,1860
2017-08-12T08:56:46.494Z,1570
2017-08-12T08:57:46.460Z,1620
2017-08-12T08:58:46.553Z,1260
2017-08-12T08:59:46.532Z,1180
2017-08-12T09:00:46.541Z,1020
2017-08-12T09:02:00.403Z,970
2017-08-12T09:02:46.487Z,755
2017-08-12T09:03:46.494Z,625
2017-08-12T09:04:46.461Z,545
2017-08-12T09:05:46.148Z,490
2017-08-12T09:06:46.334Z,465
2017-08-12T09:07:46.129Z,505
2017-08-12T09:08:46.414Z,555
2017-08-12T09:09:45.786Z,585
2017-08-12T09:10:46.361Z,695
2017-08-12T09:11:46.350Z,650
2017-08-12T09:12:46.331Z,675
2017-08-12T09:13:46.010Z,720
2017-08-12T09:14:46.006Z,575
2017-08-12T09:15:45.672Z,560
2017-08-12T09:16:46.279Z,585
2017-08-12T09:17:46.256Z,610
2017-08-12T09:18:46.238Z,735
2017-08-12T09:19:45.923Z,760
2017-08-12T09:20:45.901Z,640
2017-08-12T09:21:46.195Z,625
2017-08-12T09:22:45.878Z,700
2017-08-12T09:23:46.155Z,635
2017-08-12T09:24:46.157Z,580
2017-08-12T09:25:46.146Z,630
2017-08-12T09:26:46.114Z,625
2017-08-12T09:27:46.103Z,780
2017-08-12T09:28:46.083Z,810
2017-08-12T09:29:45.764Z,745
2017-08-12T09:30:45.963Z,690
2017-08-12T09:31:46.031Z,620
2017-08-12T09:32:46.031Z,890
2017-08-12T09:33:46.009Z,890
2017-08-12T09:34:46.016Z,675
2017-08-12T09:36:00.588Z,835
2017-08-12T09:36:59.868Z,1005
2017-08-12T09:37:45.958Z,715
2017-08-12T09:38:45.636Z,580
2017-08-12T09:39:45.306Z,565
2017-08-12T09:40:45.801Z,710
2017-08-12T09:41:45.583Z,750
2017-08-12T09:42:45.575Z,660
2017-08-12T09:43:45.880Z,800
2017-08-12T09:44:45.588Z,1110
2017-08-12T09:45:45.932Z,870
2017-08-12T09:46:45.806Z,745
2017-08-12T09:47:45.800Z,725
2017-08-12T09:48:45.779Z,725
2017-08-12T09:49:45.465Z,760
2017-08-12T09:50:45.749Z,815
2017-08-12T09:51:45.756Z,710
2017-08-12T09:52:45.102Z,700
2017-08-12T09:53:45.698Z,645
2017-08-12T09:54:45.696Z,600
2017-08-12T09:55:45.679Z,580
2017-08-12T09:56:45.654Z,590
2017-08-12T09:57:45.657Z,580
2017-08-12T09:58:45.319Z,515
2017-08-12T09:59:45.610Z,455
2017-08-12T10:00:45.289Z,380
2017-08-12T10:01:45.269Z,355
2017-08-12T10:02:45.559Z,355
2017-08-12T10:03:45.540Z,355
2017-08-12T10:04:45.579Z,360
2017-08-12T10:05:45.413Z,365
2017-08-12T10:06:45.503Z,395
2017-08-12T10:07:45.498Z,420
2017-08-12T10:08:45.473Z,440
2017-08-12T10:09:45.457Z,465
2017-08-12T10:10:45.664Z,415
2017-08-12T10:11:45.129Z,395
2017-08-12T10:12:45.408Z,390
2017-08-12T10:13:45.392Z,380
2017-08-12T10:14:45.591Z,380
2017-08-12T10:15:45.070Z,395
2017-08-12T10:16:45.391Z,410
2017-08-12T10:17:44.745Z,390
2017-08-12T10:18:44.719Z,365
2017-08-12T10:19:45.006Z,350
2017-08-12T10:20:44.699Z,360
2017-08-12T10:21:44.670Z,355
2017-08-12T10:22:45.261Z,345
2017-08-12T10:23:44.958Z,325
2017-08-12T10:24:44.926Z,325
2017-08-12T10:25:44.925Z,330
2017-08-12T10:26:45.195Z,345
2017-08-12T10:27:44.879Z,345
2017-08-12T10:28:44.873Z,335
2017-08-12T10:29:45.162Z,345
2017-08-12T10:30:44.837Z,375
2017-08-12T10:31:44.828Z,395
2017-08-12T10:32:44.812Z,360
2017-08-12T10:33:44.803Z,305
2017-08-12T10:34:45.092Z,305
2017-08-12T10:35:44.775Z,330
2017-08-12T10:36:44.763Z,355
2017-08-12T10:37:44.738Z,355
2017-08-12T10:38:44.731Z,355
2017-08-12T10:39:45.244Z,355
2017-08-12T10:40:44.992Z,350
2017-08-12T10:41:44.977Z,325
2017-08-12T10:42:44.967Z,300
2017-08-12T10:43:44.957Z,300
2017-08-12T10:44:44.645Z,325
2017-08-12T10:45:44.926Z,370
2017-08-12T10:46:44.917Z,340
2017-08-12T10:47:44.612Z,320
2017-08-12T10:48:44.862Z,340
2017-08-12T10:49:44.261Z,380
2017-08-12T10:50:44.850Z,365
2017-08-12T10:51:44.823Z,335
2017-08-12T10:52:44.843Z,340
2017-08-12T10:53:44.806Z,355
2017-08-12T10:54:44.486Z,400
2017-08-12T10:55:44.768Z,405
2017-08-12T10:56:44.792Z,380
2017-08-12T10:57:44.746Z,345
2017-08-12T10:58:44.731Z,335
2017-08-12T10:59:44.703Z,340
2017-08-12T11:00:44.683Z,335
2017-08-12T11:01:44.698Z,330
2017-08-12T11:02:44.984Z,330
2017-08-12T11:03:44.642Z,335
2017-08-12T11:04:44.628Z,320
2017-08-12T11:05:44.614Z,285
2017-08-12T11:06:44.610Z,245
2017-08-12T11:07:44.579Z,235
2017-08-12T11:08:44.591Z,245
2017-08-12T11:09:44.566Z,265
2017-08-12T11:10:44.551Z,300
2017-08-12T11:11:44.533Z,310
2017-08-12T11:12:44.230Z,310
2017-08-12T11:13:44.534Z,310
2017-08-12T11:14:44.478Z,320
2017-08-12T11:15:44.457Z,350
2017-08-12T11:16:44.161Z,370
2017-08-12T11:17:44.135Z,365
2017-08-12T11:18:44.426Z,370
2017-08-12T11:19:44.426Z,380
2017-08-12T11:20:44.422Z,385
2017-08-12T11:21:44.076Z,375
2017-08-12T11:22:44.384Z,375
2017-08-12T11:23:44.354Z,385
2017-08-12T11:24:44.035Z,395
2017-08-12T11:25:44.318Z,390
2017-08-12T11:26:43.693Z,385
2017-08-12T11:27:44.294Z,400
2017-08-12T11:28:44.269Z,410
2017-08-12T11:29:44.263Z,450
2017-08-12T11:30:44.247Z,465
2017-08-12T11:31:44.225Z,480
2017-08-12T11:32:44.208Z,515
2017-08-12T11:33:44.196Z,510
2017-08-12T11:34:44.182Z,495
2017-08-12T11:35:43.871Z,500
2017-08-12T11:36:44.164Z,545
2017-08-12T11:37:43.834Z,545
2017-08-12T11:38:44.138Z,495
2017-08-12T11:39:43.804Z,480
2017-08-12T11:40:43.810Z,495
2017-08-12T11:41:44.103Z,460
2017-08-12T11:42:43.777Z,430
2017-08-12T11:43:43.743Z,370
2017-08-12T11:44:44.036Z,345
2017-08-12T11:45:44.034Z,365
2017-08-12T11:46:44.018Z,395
2017-08-12T11:47:44.030Z,410
2017-08-12T11:48:43.987Z,405
2017-08-12T11:49:43.967Z,420
2017-08-12T11:50:43.961Z,440
2017-08-12T11:51:43.944Z,445
2017-08-12T11:52:43.906Z,525
2017-08-12T11:53:43.615Z,610
2017-08-12T11:54:43.886Z,605
2017-08-12T11:55:43.564Z,595
2017-08-12T11:56:43.852Z,680
2017-08-12T11:57:43.839Z,825
2017-08-12T11:58:43.528Z,615
2017-08-12T11:59:43.812Z,515
2017-08-12T12:01:56.401Z,630
2017-08-12T12:02:06.526Z,625
2017-08-12T12:03:06.520Z,705
2017-08-12T12:04:06.487Z,855
2017-08-12T12:05:06.456Z,775
2017-08-12T12:06:06.473Z,930
2017-08-12T12:07:06.134Z,795
2017-08-12T12:08:06.429Z,985
2017-08-12T12:09:06.111Z,885
2017-08-12T12:10:06.391Z,685
2017-08-12T12:11:06.086Z,970
2017-08-12T12:12:05.772Z,1120
2017-08-12T12:13:06.356Z,945
2017-08-12T12:14:06.334Z,990
2017-08-12T12:15:06.320Z,735
2017-08-12T12:16:06.303Z,595
2017-08-12T12:17:05.993Z,585
2017-08-12T12:18:06.265Z,510
2017-08-12T12:19:06.256Z,470
2017-08-12T12:20:05.627Z,410
2017-08-12T12:21:05.917Z,440
2017-08-12T12:22:06.224Z,475
2017-08-12T12:23:06.205Z,400
2017-08-12T12:24:06.198Z,390
2017-08-12T12:25:05.870Z,440
2017-08-12T12:26:05.856Z,430
2017-08-12T12:27:05.537Z,410
2017-08-12T12:28:05.829Z,435
2017-08-12T12:29:05.799Z,465
2017-08-12T12:30:05.802Z,500
2017-08-12T12:31:05.773Z,455
2017-08-12T12:32:05.753Z,410
2017-08-12T12:33:05.731Z,410
2017-08-12T12:34:06.024Z,425
2017-08-12T12:35:06.003Z,410
2017-08-12T12:36:06.003Z,360
2017-08-12T12:37:05.995Z,375
2017-08-12T12:38:05.983Z,425
2017-08-12T12:39:05.964Z,435
2017-08-12T12:40:05.953Z,370
2017-08-12T12:41:05.915Z,365
2017-08-12T12:42:05.827Z,405
2017-08-12T12:43:05.890Z,460
2017-08-12T12:44:05.880Z,475
2017-08-12T12:45:05.844Z,430
2017-08-12T12:46:05.830Z,410
2017-08-12T12:47:05.843Z,385
2017-08-12T12:48:05.834Z,355
2017-08-12T12:49:05.786Z,365
2017-08-12T12:50:05.484Z,330
2017-08-12T12:51:05.766Z,325
2017-08-12T12:52:05.762Z,325
2017-08-12T12:53:05.423Z,355
2017-08-12T12:54:05.111Z,380
2017-08-12T12:55:04.810Z,430
2017-08-12T12:56:05.698Z,435
2017-08-12T12:57:05.075Z,420
2017-08-12T12:58:05.062Z,410
2017-08-12T12:59:05.650Z,405
2017-08-12T13:00:05.326Z,420
2017-08-12T13:01:05.347Z,415
2017-08-12T13:02:05.613Z,455
2017-08-12T13:03:05.600Z,495
2017-08-12T13:04:05.579Z,420
2017-08-12T13:05:05.259Z,425
2017-08-12T13:06:04.943Z,445
2017-08-12T13:07:05.219Z,410
2017-08-12T13:08:05.557Z,370
2017-08-12T13:09:05.188Z,345
2017-08-12T13:10:05.510Z,340
2017-08-12T13:11:05.681Z,360
2017-08-12T13:12:05.141Z,395
2017-08-12T13:13:05.159Z,385
2017-08-12T13:14:05.438Z,385
2017-08-12T13:15:05.604Z,375
2017-08-12T13:16:19.290Z,295
2017-08-12T13:17:05.374Z,270
2017-08-12T13:18:05.381Z,270
2017-08-12T13:19:05.363Z,270
2017-08-12T13:20:05.642Z,320
2017-08-12T13:21:05.547Z,360
2017-08-12T13:22:04.408Z,395
2017-08-12T13:23:05.283Z,380
2017-08-12T13:24:05.304Z,350
2017-08-12T13:25:04.977Z,350
2017-08-12T13:26:05.264Z,340
2017-08-12T13:27:04.947Z,330
2017-08-12T13:28:05.214Z,340
2017-08-12T13:29:05.217Z,330
2017-08-12T13:30:05.215Z,305
2017-08-12T13:31:04.883Z,305
2017-08-12T13:32:04.568Z,320
2017-08-12T13:33:04.851Z,350
2017-08-12T13:34:05.145Z,340
2017-08-12T13:35:05.131Z,335
2017-08-12T13:36:05.117Z,305
2017-08-12T13:37:04.496Z,280
2017-08-12T13:38:05.090Z,300
2017-08-12T13:39:04.770Z,305
2017-08-12T13:40:04.757Z,280
2017-08-12T13:41:05.047Z,275
2017-08-12T13:42:04.734Z,270
2017-08-12T13:43:04.724Z,265
2017-08-12T13:44:05.003Z,265
2017-08-12T13:45:04.660Z,265
2017-08-12T13:46:04.972Z,255
2017-08-12T13:47:04.633Z,250
2017-08-12T13:48:04.635Z,255
2017-08-12T13:49:04.917Z,250
2017-08-12T13:50:05.094Z,255
2017-08-12T13:51:04.608Z,260
2017-08-12T13:52:04.578Z,250
2017-08-12T13:53:19.471Z,245
2017-08-12T13:54:04.539Z,245
2017-08-12T13:55:04.517Z,240
2017-08-12T13:56:04.506Z,265
2017-08-12T13:57:04.784Z,285
2017-08-12T13:58:04.175Z,290
2017-08-12T13:59:04.956Z,270
2017-08-12T14:00:04.741Z,250
2017-08-12T14:01:04.138Z,245
2017-08-12T14:02:04.098Z,240
2017-08-12T14:03:04.095Z,240
2017-08-12T14:04:04.692Z,260
2017-08-12T14:05:04.673Z,305
2017-08-12T14:06:04.665Z,295
2017-08-12T14:07:04.658Z,275
2017-08-12T14:08:04.633Z,265